createdAt,value
2023-01-19T00:01:21.849Z,11
2023-01-19T00:02:21.957Z,10
2023-01-19T00:03:21.976Z,10
2023-01-19T00:04:21.859Z,9
2023-01-19T00:05:21.930Z,11
2023-01-19T00:06:21.936Z,10
2023-01-19T00:07:21.884Z,11
2023-01-19T00:08:21.864Z,10
2023-01-19T00:09:21.857Z,10
2023-01-19T00:10:21.872Z,10
2023-01-19T00:11:21.866Z,10
2023-01-19T00:12:21.852Z,10
2023-01-19T00:13:21.853Z,9
2023-01-19T00:14:21.894Z,9
2023-01-19T00:15:21.849Z,9
2023-01-19T00:16:21.978Z,10
2023-01-19T00:17:21.858Z,10
2023-01-19T00:18:21.858Z,11
2023-01-19T00:19:21.853Z,9
2023-01-19T00:20:21.859Z,10
2023-01-19T00:21:21.853Z,9
2023-01-19T00:22:21.860Z,9
2023-01-19T00:23:21.872Z,10
2023-01-19T00:24:21.848Z,10
2023-01-19T00:25:21.848Z,9
2023-01-19T00:26:21.885Z,9
2023-01-19T00:27:21.873Z,10
2023-01-19T00:28:21.847Z,9
2023-01-19T00:29:21.852Z,10
2023-01-19T00:30:21.862Z,9
2023-01-19T00:31:22.128Z,9
2023-01-19T00:32:21.853Z,9
2023-01-19T00:33:21.897Z,10
2023-01-19T00:34:21.861Z,9
2023-01-19T00:35:21.860Z,9
2023-01-19T00:36:21.855Z,12
2023-01-19T00:37:21.887Z,11
2023-01-19T00:39:21.856Z,10
2023-01-19T00:40:21.857Z,10
2023-01-19T00:41:21.849Z,9
2023-01-19T00:42:21.844Z,11
2023-01-19T00:43:21.860Z,11
2023-01-19T00:44:21.866Z,10
2023-01-19T00:45:21.924Z,8
2023-01-19T00:47:21.846Z,9
2023-01-19T00:48:21.865Z,11
2023-01-19T00:49:21.846Z,10
2023-01-19T00:50:21.861Z,10
2023-01-19T00:52:21.920Z,9
2023-01-19T00:53:21.837Z,10
2023-01-19T00:55:21.850Z,11
2023-01-19T00:56:21.866Z,10
2023-01-19T00:57:21.850Z,9
2023-01-19T00:58:21.852Z,10
2023-01-19T00:59:21.850Z,9
2023-01-19T01:00:21.855Z,9
2023-01-19T01:01:22.252Z,10
2023-01-19T01:02:22.021Z,10
2023-01-19T01:03:21.892Z,9
2023-01-19T01:04:21.852Z,11
2023-01-19T01:05:21.848Z,11
2023-01-19T01:06:21.849Z,10
2023-01-19T01:07:21.839Z,9
2023-01-19T01:08:21.886Z,9
2023-01-19T01:09:21.881Z,10
2023-01-19T01:10:21.834Z,10
2023-01-19T01:11:21.833Z,9
2023-01-19T01:12:21.835Z,11
2023-01-19T01:13:24.229Z,10
2023-01-19T01:14:21.837Z,10
2023-01-19T01:15:21.880Z,11
2023-01-19T01:16:21.874Z,10
2023-01-19T01:17:21.841Z,10
2023-01-19T01:18:21.839Z,12
2023-01-19T01:19:21.836Z,9
2023-01-19T01:20:21.841Z,11
2023-01-19T01:21:21.850Z,8
2023-01-19T01:22:21.830Z,10
2023-01-19T01:23:21.851Z,10
2023-01-19T01:24:21.835Z,11
2023-01-19T01:25:21.848Z,9
2023-01-19T01:26:21.846Z,9
2023-01-19T01:27:21.835Z,10
2023-01-19T01:28:21.834Z,10
2023-01-19T01:29:21.834Z,10
2023-01-19T01:30:21.844Z,9
2023-01-19T01:31:21.897Z,9
2023-01-19T01:32:21.838Z,9
2023-01-19T01:33:39.785Z,9
2023-01-19T01:34:21.830Z,10
2023-01-19T01:35:21.831Z,10
2023-01-19T01:36:21.828Z,10
2023-01-19T01:37:21.828Z,10
2023-01-19T01:38:21.831Z,10
2023-01-19T01:39:21.835Z,10
2023-01-19T01:40:21.936Z,10
2023-01-19T01:41:22.055Z,10
2023-01-19T01:42:21.824Z,9
2023-01-19T01:43:21.828Z,9
2023-01-19T01:44:21.828Z,10
2023-01-19T01:45:21.834Z,10
2023-01-19T01:46:21.843Z,9
2023-01-19T01:47:21.833Z,9
2023-01-19T01:49:21.822Z,8
2023-01-19T01:50:21.828Z,11
2023-01-19T01:51:21.846Z,10
2023-01-19T01:52:21.819Z,10
2023-01-19T01:53:21.825Z,10
2023-01-19T01:54:21.832Z,10
2023-01-19T01:55:21.859Z,10
2023-01-19T01:56:21.843Z,9
2023-01-19T01:57:22.875Z,10
2023-01-19T01:58:21.825Z,10
2023-01-19T01:59:21.828Z,9
2023-01-19T02:00:21.910Z,9
2023-01-19T02:01:22.095Z,11
2023-01-19T02:02:21.836Z,11
2023-01-19T02:03:22.244Z,10
2023-01-19T02:04:21.827Z,9
2023-01-19T02:05:21.825Z,11
2023-01-19T02:06:21.827Z,9
2023-01-19T02:07:21.821Z,10
2023-01-19T02:08:21.829Z,9
2023-01-19T02:09:21.820Z,10
2023-01-19T02:10:21.824Z,10
2023-01-19T02:11:21.853Z,11
2023-01-19T02:12:21.819Z,10
2023-01-19T02:13:21.820Z,10
2023-01-19T02:15:21.832Z,9
2023-01-19T02:16:21.878Z,10
2023-01-19T02:17:21.818Z,9
2023-01-19T02:18:21.820Z,10
2023-01-19T02:19:21.810Z,11
2023-01-19T02:20:21.876Z,10
2023-01-19T02:21:21.814Z,9
2023-01-19T02:23:21.828Z,10
2023-01-19T02:24:21.812Z,9
2023-01-19T02:25:21.811Z,8
2023-01-19T02:26:21.816Z,9
2023-01-19T02:27:21.819Z,10
2023-01-19T02:28:21.821Z,9
2023-01-19T02:29:21.822Z,11
2023-01-19T02:30:21.833Z,10
2023-01-19T02:31:21.808Z,11
2023-01-19T02:32:21.817Z,10
2023-01-19T02:33:21.819Z,10
2023-01-19T02:34:21.832Z,11
2023-01-19T02:35:21.877Z,11
2023-01-19T02:36:21.830Z,10
2023-01-19T02:37:21.830Z,12
2023-01-19T02:38:21.811Z,10
2023-01-19T02:39:21.818Z,10
2023-01-19T02:40:21.822Z,9
2023-01-19T02:41:21.810Z,9
2023-01-19T02:42:21.964Z,9
2023-01-19T02:43:21.843Z,9
2023-01-19T02:44:21.812Z,9
2023-01-19T02:45:21.822Z,10
2023-01-19T02:46:21.889Z,9
2023-01-19T02:47:21.816Z,11
2023-01-19T02:48:21.810Z,10
2023-01-19T02:49:21.812Z,10
2023-01-19T02:50:21.811Z,10
2023-01-19T02:51:21.826Z,10
2023-01-19T02:52:21.810Z,9
2023-01-19T02:53:21.805Z,9
2023-01-19T02:54:21.824Z,11
2023-01-19T02:55:21.804Z,10
2023-01-19T02:56:21.808Z,9
2023-01-19T02:58:21.817Z,8
2023-01-19T02:59:21.809Z,9
2023-01-19T03:00:21.812Z,8
2023-01-19T03:01:21.931Z,10
2023-01-19T03:02:22.198Z,11
2023-01-19T03:03:21.814Z,10
2023-01-19T03:04:21.817Z,10
2023-01-19T03:05:21.822Z,9
2023-01-19T03:06:21.807Z,9
2023-01-19T03:07:21.803Z,9
2023-01-19T03:08:21.812Z,11
2023-01-19T03:09:21.814Z,9
2023-01-19T03:10:21.833Z,10
2023-01-19T03:12:21.811Z,11
2023-01-19T03:13:21.803Z,9
2023-01-19T03:14:21.804Z,9
2023-01-19T03:15:21.813Z,9
2023-01-19T03:16:22.694Z,9
2023-01-19T03:17:21.802Z,10
2023-01-19T03:18:21.799Z,8
2023-01-19T03:19:21.802Z,10
2023-01-19T03:20:21.801Z,9
2023-01-19T03:21:21.804Z,11
2023-01-19T03:22:21.800Z,9
2023-01-19T03:23:21.806Z,9
2023-01-19T03:24:21.797Z,10
2023-01-19T03:26:21.803Z,8
2023-01-19T03:27:21.817Z,8
2023-01-19T03:28:21.841Z,10
2023-01-19T03:29:21.808Z,9
2023-01-19T03:30:21.811Z,9
2023-01-19T03:31:21.837Z,9
2023-01-19T03:32:21.817Z,8
2023-01-19T03:33:21.797Z,10
2023-01-19T03:34:21.824Z,9
2023-01-19T03:35:21.802Z,9
2023-01-19T03:36:21.794Z,9
2023-01-19T03:37:21.805Z,8
2023-01-19T03:38:21.793Z,9
2023-01-19T03:39:21.804Z,10
2023-01-19T03:40:21.805Z,9
2023-01-19T03:41:21.814Z,9
2023-01-19T03:42:21.855Z,8
2023-01-19T03:43:21.793Z,9
2023-01-19T03:45:21.832Z,9
2023-01-19T03:46:21.901Z,8
2023-01-19T03:47:21.812Z,8
2023-01-19T03:48:21.793Z,9
2023-01-19T03:49:21.801Z,8
2023-01-19T03:50:21.801Z,10
2023-01-19T03:51:21.800Z,9
2023-01-19T03:53:21.798Z,9
2023-01-19T03:54:21.800Z,9
2023-01-19T03:55:21.805Z,9
2023-01-19T03:56:21.788Z,9
2023-01-19T03:58:21.802Z,9
2023-01-19T03:59:21.977Z,8
2023-01-19T04:01:21.917Z,9
2023-01-19T04:02:21.835Z,10
2023-01-19T04:03:21.797Z,8
2023-01-19T04:04:21.795Z,10
2023-01-19T04:05:21.798Z,9
2023-01-19T04:06:21.789Z,10
2023-01-19T04:07:21.797Z,9
2023-01-19T04:08:21.798Z,10
2023-01-19T04:09:21.791Z,10
2023-01-19T04:10:21.796Z,10
2023-01-19T04:11:21.806Z,10
2023-01-19T04:12:21.796Z,10
2023-01-19T04:15:21.785Z,10
2023-01-19T04:16:21.884Z,10
2023-01-19T04:17:21.791Z,10
2023-01-19T04:19:21.784Z,11
2023-01-19T04:20:21.791Z,12
2023-01-19T04:21:21.815Z,11
2023-01-19T04:22:21.789Z,11
2023-01-19T04:23:21.824Z,11
2023-01-19T04:24:21.785Z,10
2023-01-19T04:25:21.792Z,11
2023-01-19T04:26:21.805Z,10
2023-01-19T04:27:21.779Z,10
2023-01-19T04:28:21.792Z,10
2023-01-19T04:29:21.806Z,11
2023-01-19T04:30:21.819Z,11
2023-01-19T04:31:21.864Z,11
2023-01-19T04:32:21.832Z,11
2023-01-19T04:33:21.784Z,12
2023-01-19T04:35:21.780Z,11
2023-01-19T04:36:21.781Z,11
2023-01-19T04:37:21.842Z,11
2023-01-19T04:38:21.791Z,10
2023-01-19T04:40:21.800Z,10
2023-01-19T04:41:21.902Z,11
2023-01-19T04:42:21.779Z,10
2023-01-19T04:43:21.785Z,10
2023-01-19T04:44:21.779Z,11
2023-01-19T04:45:21.784Z,11
2023-01-19T04:46:21.820Z,11
2023-01-19T04:47:21.789Z,10
2023-01-19T04:49:21.776Z,11
2023-01-19T04:51:21.776Z,9
2023-01-19T04:52:21.844Z,9
2023-01-19T04:53:21.777Z,9
2023-01-19T04:54:21.834Z,11
2023-01-19T04:56:21.769Z,11
2023-01-19T04:57:21.781Z,11
2023-01-19T04:58:21.784Z,11
2023-01-19T04:59:21.770Z,12
2023-01-19T05:01:22.034Z,12
2023-01-19T05:02:21.781Z,11
2023-01-19T05:03:21.873Z,11
2023-01-19T05:04:21.768Z,13
2023-01-19T05:05:21.775Z,13
2023-01-19T05:06:21.786Z,13
2023-01-19T05:07:21.772Z,11
2023-01-19T05:08:21.769Z,12
2023-01-19T05:09:21.771Z,10
2023-01-19T05:10:21.770Z,11
2023-01-19T05:11:21.859Z,11
2023-01-19T05:12:21.772Z,10
2023-01-19T05:13:21.777Z,12
2023-01-19T05:14:21.768Z,12
2023-01-19T05:15:21.770Z,12
2023-01-19T05:16:21.877Z,11
2023-01-19T05:17:21.772Z,13
2023-01-19T05:19:21.773Z,11
2023-01-19T05:20:21.779Z,11
2023-01-19T05:21:21.764Z,11
2023-01-19T05:22:21.767Z,10
2023-01-19T05:23:21.774Z,11
2023-01-19T05:24:21.812Z,12
2023-01-19T05:25:21.773Z,11
2023-01-19T05:26:21.776Z,11
2023-01-19T05:27:21.769Z,11
2023-01-19T05:28:21.757Z,11
2023-01-19T05:30:21.763Z,10
2023-01-19T05:31:21.839Z,11
2023-01-19T05:32:21.890Z,11
2023-01-19T05:33:21.766Z,10
2023-01-19T05:34:21.764Z,10
2023-01-19T05:35:31.348Z,9
2023-01-19T05:36:21.777Z,9
2023-01-19T05:37:21.775Z,10
2023-01-19T05:38:34.297Z,9
2023-01-19T05:39:21.764Z,10
2023-01-19T05:40:21.764Z,10
2023-01-19T05:41:21.762Z,10
2023-01-19T05:42:21.773Z,10
2023-01-19T05:43:21.791Z,10
2023-01-19T05:44:21.813Z,10
2023-01-19T05:45:21.768Z,10
2023-01-19T05:46:21.790Z,11
2023-01-19T05:47:21.757Z,10
2023-01-19T05:48:21.757Z,10
2023-01-19T05:49:21.839Z,9
2023-01-19T05:50:21.769Z,10
2023-01-19T05:51:21.760Z,9
2023-01-19T05:52:21.759Z,9
2023-01-19T05:53:21.752Z,10
2023-01-19T05:54:21.837Z,10
2023-01-19T05:55:21.765Z,9
2023-01-19T05:56:21.755Z,9
2023-01-19T05:57:21.763Z,9
2023-01-19T05:58:21.757Z,10
2023-01-19T05:59:21.753Z,9
2023-01-19T06:00:21.760Z,9
2023-01-19T06:01:21.780Z,9
2023-01-19T06:02:21.814Z,10
2023-01-19T06:03:21.839Z,10
2023-01-19T06:04:21.760Z,10
2023-01-19T06:05:21.766Z,10
2023-01-19T06:06:21.770Z,10
2023-01-19T06:07:23.815Z,9
2023-01-19T06:08:21.773Z,11
2023-01-19T06:09:21.758Z,11
2023-01-19T06:10:21.754Z,8
2023-01-19T06:11:21.756Z,10
2023-01-19T06:12:21.755Z,10
2023-01-19T06:13:21.768Z,11
2023-01-19T06:14:21.754Z,10
2023-01-19T06:15:21.767Z,10
2023-01-19T06:16:21.782Z,9
2023-01-19T06:17:21.757Z,9
2023-01-19T06:18:21.748Z,9
2023-01-19T06:19:21.765Z,9
2023-01-19T06:20:21.773Z,9
2023-01-19T06:21:21.751Z,8
2023-01-19T06:22:21.752Z,9
2023-01-19T06:23:21.788Z,8
2023-01-19T06:24:21.744Z,8
2023-01-19T06:25:21.755Z,9
2023-01-19T06:26:21.741Z,8
2023-01-19T06:27:22.048Z,8
2023-01-19T06:28:21.746Z,8
2023-01-19T06:29:21.760Z,7
2023-01-19T06:31:21.812Z,7
2023-01-19T06:32:21.751Z,7
2023-01-19T06:34:21.769Z,8
2023-01-19T06:35:21.745Z,6
2023-01-19T06:36:21.749Z,7
2023-01-19T06:37:21.754Z,7
2023-01-19T06:38:21.792Z,7
2023-01-19T06:39:21.751Z,7
2023-01-19T06:40:21.738Z,7
2023-01-19T06:42:21.856Z,7
2023-01-19T06:43:21.758Z,7
2023-01-19T06:44:21.757Z,7
2023-01-19T06:45:21.752Z,7
2023-01-19T06:47:21.744Z,7
2023-01-19T06:48:21.743Z,8
2023-01-19T06:51:21.742Z,8
2023-01-19T06:52:21.742Z,9
2023-01-19T06:53:21.744Z,8
2023-01-19T06:55:21.744Z,8
2023-01-19T06:56:21.743Z,8
2023-01-19T06:57:21.800Z,7
2023-01-19T06:58:21.808Z,7
2023-01-19T06:59:21.745Z,7
2023-01-19T07:00:21.743Z,8
2023-01-19T07:01:21.918Z,8
2023-01-19T07:02:26.489Z,8
2023-01-19T07:03:21.791Z,8
2023-01-19T07:04:21.739Z,7
2023-01-19T07:05:21.767Z,7
2023-01-19T07:06:21.738Z,8
2023-01-19T07:07:21.765Z,8
2023-01-19T07:08:21.739Z,9
2023-01-19T07:10:21.812Z,8
2023-01-19T07:12:21.752Z,9
2023-01-19T07:13:21.743Z,9
2023-01-19T07:14:21.735Z,7
2023-01-19T07:16:21.798Z,9
2023-01-19T07:17:21.745Z,8
2023-01-19T07:18:21.736Z,8
2023-01-19T07:19:21.737Z,8
2023-01-19T07:20:21.753Z,8
2023-01-19T07:21:21.741Z,8
2023-01-19T07:22:21.740Z,8
2023-01-19T07:23:21.747Z,9
2023-01-19T07:24:21.731Z,8
2023-01-19T07:25:21.737Z,8
2023-01-19T07:26:22.167Z,8
2023-01-19T07:27:21.740Z,9
2023-01-19T07:28:21.745Z,9
2023-01-19T07:29:21.744Z,9
2023-01-19T07:30:21.783Z,7
2023-01-19T07:31:21.849Z,9
2023-01-19T07:32:21.739Z,8
2023-01-19T07:34:21.746Z,8
2023-01-19T07:35:21.780Z,8
2023-01-19T07:36:21.881Z,9
2023-01-19T07:37:21.722Z,8
2023-01-19T07:38:21.751Z,8
2023-01-19T07:39:21.725Z,8
2023-01-19T07:40:23.939Z,9
2023-01-19T07:41:21.731Z,9
2023-01-19T07:42:21.750Z,8
2023-01-19T07:43:21.732Z,8
2023-01-19T07:44:21.738Z,9
2023-01-19T07:45:21.789Z,9
2023-01-19T07:46:21.820Z,9
2023-01-19T07:47:21.738Z,9
2023-01-19T07:48:21.737Z,8
2023-01-19T07:49:21.737Z,7
2023-01-19T07:50:21.734Z,8
2023-01-19T07:51:21.731Z,8
2023-01-19T07:52:21.740Z,8
2023-01-19T07:53:21.732Z,9
2023-01-19T07:54:21.740Z,10
2023-01-19T07:55:21.734Z,9
2023-01-19T07:56:21.728Z,9
2023-01-19T07:58:21.732Z,9
2023-01-19T07:59:21.727Z,10
2023-01-19T08:00:21.789Z,10
2023-01-19T08:01:21.866Z,10
2023-01-19T08:03:21.742Z,9
2023-01-19T08:04:21.984Z,8
2023-01-19T08:05:21.727Z,9
2023-01-19T08:06:21.766Z,10
2023-01-19T08:07:21.746Z,10
2023-01-19T08:09:21.739Z,10
2023-01-19T08:10:21.726Z,9
2023-01-19T08:11:21.733Z,9
2023-01-19T08:12:21.730Z,10
2023-01-19T08:13:21.719Z,10
2023-01-19T08:14:21.725Z,9
2023-01-19T08:15:21.728Z,10
2023-01-19T08:16:21.717Z,9
2023-01-19T08:17:21.746Z,10
2023-01-19T08:18:21.737Z,10
2023-01-19T08:19:21.726Z,9
2023-01-19T08:20:21.726Z,9
2023-01-19T08:21:21.731Z,8
2023-01-19T08:22:21.805Z,10
2023-01-19T08:23:21.727Z,8
2023-01-19T08:24:21.824Z,8
2023-01-19T08:25:21.734Z,8
2023-01-19T08:26:21.722Z,8
2023-01-19T08:27:21.740Z,8
2023-01-19T08:28:21.734Z,8
2023-01-19T08:29:21.727Z,8
2023-01-19T08:30:21.738Z,9
2023-01-19T08:31:24.462Z,8
2023-01-19T08:32:21.824Z,8
2023-01-19T08:33:21.716Z,9
2023-01-19T08:34:21.725Z,9
2023-01-19T08:35:21.722Z,9
2023-01-19T08:37:21.725Z,10
2023-01-19T08:38:21.752Z,9
2023-01-19T08:39:21.724Z,10
2023-01-19T08:40:21.714Z,10
2023-01-19T08:41:21.724Z,10
2023-01-19T08:42:21.732Z,10
2023-01-19T08:43:21.713Z,10
2023-01-19T08:45:21.717Z,10
2023-01-19T08:46:21.860Z,10
2023-01-19T08:48:21.723Z,11
2023-01-19T08:49:21.738Z,11
2023-01-19T08:50:21.730Z,11
2023-01-19T08:51:21.722Z,12
2023-01-19T08:52:21.724Z,13
2023-01-19T08:53:21.715Z,14
2023-01-19T08:54:21.726Z,14
2023-01-19T08:55:21.713Z,12
2023-01-19T08:56:21.725Z,12
2023-01-19T08:57:21.715Z,14
2023-01-19T08:58:21.708Z,14
2023-01-19T08:59:21.757Z,15
2023-01-19T09:00:21.912Z,15
2023-01-19T09:01:21.827Z,14
2023-01-19T09:02:21.903Z,13
2023-01-19T09:03:21.778Z,15
2023-01-19T09:04:21.711Z,15
2023-01-19T09:05:21.715Z,15
2023-01-19T09:06:21.715Z,17
2023-01-19T09:07:21.759Z,16
2023-01-19T09:08:21.725Z,17
2023-01-19T09:09:21.755Z,16
2023-01-19T09:10:21.783Z,17
2023-01-19T09:11:21.709Z,16
2023-01-19T09:12:21.716Z,18
2023-01-19T09:13:21.724Z,18
2023-01-19T09:14:21.712Z,18
2023-01-19T09:15:21.713Z,17
2023-01-19T09:16:21.796Z,18
2023-01-19T09:17:21.717Z,18
2023-01-19T09:18:21.709Z,19
2023-01-19T09:19:21.715Z,18
2023-01-19T09:20:21.715Z,18
2023-01-19T09:21:21.711Z,19
2023-01-19T09:22:21.705Z,20
2023-01-19T09:23:21.716Z,19
2023-01-19T09:24:21.784Z,19
2023-01-19T09:25:21.708Z,18
2023-01-19T09:27:21.708Z,18
2023-01-19T09:28:21.704Z,18
2023-01-19T09:29:21.724Z,17
2023-01-19T09:30:21.703Z,18
2023-01-19T09:31:21.838Z,16
2023-01-19T09:32:21.708Z,15
2023-01-19T09:33:21.721Z,16
2023-01-19T09:35:21.723Z,15
2023-01-19T09:36:21.712Z,16
2023-01-19T09:37:21.724Z,15
2023-01-19T09:38:21.707Z,15
2023-01-19T09:41:21.726Z,15
2023-01-19T09:43:21.731Z,14
2023-01-19T09:44:21.707Z,15
2023-01-19T09:45:21.705Z,16
2023-01-19T09:47:21.704Z,16
2023-01-19T09:48:21.705Z,15
2023-01-19T09:49:21.769Z,14
2023-01-19T09:51:21.715Z,14
2023-01-19T09:52:21.702Z,13
2023-01-19T09:53:21.698Z,13
2023-01-19T09:54:21.719Z,13
2023-01-19T09:55:21.701Z,13
2023-01-19T09:56:21.735Z,13
2023-01-19T09:58:21.701Z,13
2023-01-19T09:59:21.701Z,13
2023-01-19T10:00:21.704Z,13
2023-01-19T10:01:21.897Z,14
2023-01-19T10:02:21.725Z,13
2023-01-19T10:03:21.755Z,13
2023-01-19T10:04:21.764Z,14
2023-01-19T10:05:21.702Z,14
2023-01-19T10:06:21.714Z,13
2023-01-19T10:07:21.701Z,15
2023-01-19T10:08:21.702Z,16
2023-01-19T10:10:21.741Z,15
2023-01-19T10:11:21.709Z,15
2023-01-19T10:12:21.701Z,16
2023-01-19T10:13:21.709Z,15
2023-01-19T10:14:21.693Z,16
2023-01-19T10:15:21.707Z,17
2023-01-19T10:16:21.748Z,16
2023-01-19T10:17:21.703Z,14
2023-01-19T10:18:22.854Z,15
2023-01-19T10:19:21.708Z,16
2023-01-19T10:20:21.697Z,16
2023-01-19T10:21:21.717Z,18
2023-01-19T10:22:21.731Z,16
2023-01-19T10:23:21.747Z,18
2023-01-19T10:24:21.697Z,17
2023-01-19T10:25:21.745Z,18
2023-01-19T10:26:21.746Z,17
2023-01-19T10:27:21.747Z,16
2023-01-19T10:28:21.699Z,16
2023-01-19T10:29:21.699Z,16
2023-01-19T10:30:21.705Z,16
2023-01-19T10:31:21.910Z,18
2023-01-19T10:32:21.692Z,17
2023-01-19T10:34:23.666Z,18
2023-01-19T10:35:21.756Z,17
2023-01-19T10:36:21.816Z,17
2023-01-19T10:37:21.698Z,16
2023-01-19T10:38:21.692Z,16
2023-01-19T10:40:21.745Z,16
2023-01-19T10:41:21.744Z,17
2023-01-19T10:42:21.700Z,16
2023-01-19T10:43:21.745Z,16
2023-01-19T10:44:21.710Z,15
2023-01-19T10:45:21.923Z,15
2023-01-19T10:46:21.863Z,15
2023-01-19T10:47:21.707Z,14
2023-01-19T10:48:21.790Z,16
2023-01-19T10:49:21.687Z,16
2023-01-19T10:50:21.697Z,15
2023-01-19T10:51:21.757Z,15
2023-01-19T10:52:21.759Z,14
2023-01-19T10:53:21.721Z,15
2023-01-19T10:54:21.724Z,16
2023-01-19T10:56:21.725Z,14
2023-01-19T10:57:21.726Z,15
2023-01-19T10:58:21.847Z,14
2023-01-19T10:59:21.685Z,14
2023-01-19T11:00:21.724Z,15
2023-01-19T11:01:21.869Z,15
2023-01-19T11:02:22.114Z,15
2023-01-19T11:04:21.775Z,14
2023-01-19T11:05:21.689Z,15
2023-01-19T11:06:21.692Z,14
2023-01-19T11:07:21.693Z,15
2023-01-19T11:08:21.688Z,16
2023-01-19T11:09:21.705Z,14
2023-01-19T11:10:21.701Z,15
2023-01-19T11:12:21.697Z,18
2023-01-19T11:13:21.679Z,16
2023-01-19T11:14:21.695Z,16
2023-01-19T11:15:21.689Z,17
2023-01-19T11:17:21.685Z,17
2023-01-19T11:20:21.700Z,17
2023-01-19T11:21:21.717Z,21
2023-01-19T11:22:21.791Z,20
2023-01-19T11:25:21.691Z,20
2023-01-19T11:26:21.690Z,19
2023-01-19T11:27:21.695Z,17
2023-01-19T11:28:21.755Z,19
2023-01-19T11:29:21.717Z,17
2023-01-19T11:30:21.698Z,18
2023-01-19T11:31:21.808Z,16
2023-01-19T11:32:21.676Z,17
2023-01-19T11:33:21.697Z,17
2023-01-19T11:34:21.692Z,17
2023-01-19T11:35:21.696Z,16
2023-01-19T11:36:21.687Z,17
2023-01-19T11:37:21.686Z,17
2023-01-19T11:38:21.682Z,16
2023-01-19T11:39:21.677Z,15
2023-01-19T11:40:21.701Z,16
2023-01-19T11:41:21.708Z,16
2023-01-19T11:42:21.699Z,16
2023-01-19T11:43:21.688Z,17
2023-01-19T11:44:21.688Z,18
2023-01-19T11:45:21.700Z,17
2023-01-19T11:46:21.686Z,17
2023-01-19T11:47:21.694Z,16
2023-01-19T11:48:21.677Z,17
2023-01-19T11:49:21.683Z,17
2023-01-19T11:50:21.691Z,16
2023-01-19T11:52:21.689Z,17
2023-01-19T11:53:21.765Z,17
2023-01-19T11:54:21.698Z,16
2023-01-19T11:55:21.684Z,15
2023-01-19T11:56:21.703Z,18
2023-01-19T11:57:21.676Z,16
2023-01-19T11:58:21.701Z,16
2023-01-19T12:00:21.708Z,17
2023-01-19T12:01:21.736Z,18
2023-01-19T12:02:21.742Z,18
2023-01-19T12:03:21.817Z,17
2023-01-19T12:04:21.680Z,17
2023-01-19T12:05:21.675Z,17
2023-01-19T12:06:21.682Z,18
2023-01-19T12:07:21.680Z,20
2023-01-19T12:08:21.691Z,20
2023-01-19T12:09:21.683Z,19
2023-01-19T12:10:21.680Z,20
2023-01-19T12:11:21.692Z,20
2023-01-19T12:12:21.681Z,19
2023-01-19T12:13:21.686Z,20
2023-01-19T12:14:21.680Z,19
2023-01-19T12:15:21.676Z,20
2023-01-19T12:17:21.681Z,21
2023-01-19T12:19:21.680Z,20
2023-01-19T12:20:21.693Z,21
2023-01-19T12:21:21.676Z,20
2023-01-19T12:22:21.677Z,21
2023-01-19T12:23:21.691Z,21
2023-01-19T12:24:21.721Z,20
2023-01-19T12:25:21.678Z,22
2023-01-19T12:26:21.680Z,23
2023-01-19T12:27:21.699Z,21
2023-01-19T12:28:21.673Z,21
2023-01-19T12:29:21.670Z,22
2023-01-19T12:31:21.929Z,21
2023-01-19T12:32:21.680Z,21
2023-01-19T12:33:21.680Z,21
2023-01-19T12:34:21.670Z,21
2023-01-19T12:35:21.676Z,19
2023-01-19T12:36:21.679Z,20
2023-01-19T12:37:21.675Z,21
2023-01-19T12:38:21.687Z,20
2023-01-19T12:39:21.680Z,21
2023-01-19T12:40:21.694Z,19
2023-01-19T12:42:21.668Z,21
2023-01-19T12:43:21.678Z,21
2023-01-19T12:44:21.686Z,20
2023-01-19T12:45:21.687Z,20
2023-01-19T12:46:21.744Z,20
2023-01-19T12:47:21.679Z,20
2023-01-19T12:48:21.663Z,20
2023-01-19T12:49:21.683Z,20
2023-01-19T12:50:21.671Z,22
2023-01-19T12:51:21.675Z,21
2023-01-19T12:52:21.678Z,21
2023-01-19T12:54:21.719Z,21
2023-01-19T12:55:21.740Z,21
2023-01-19T12:56:21.671Z,20
2023-01-19T12:57:21.679Z,21
2023-01-19T12:58:21.692Z,19
2023-01-19T12:59:21.681Z,19
2023-01-19T13:00:21.686Z,20
2023-01-19T13:02:21.718Z,20
2023-01-19T13:03:21.679Z,20
2023-01-19T13:04:21.671Z,20
2023-01-19T13:05:21.696Z,19
2023-01-19T13:07:21.673Z,17
2023-01-19T13:08:21.669Z,19
2023-01-19T13:10:21.673Z,18
2023-01-19T13:12:21.673Z,17
2023-01-19T13:13:21.672Z,19
2023-01-19T13:14:21.663Z,17
2023-01-19T13:15:21.738Z,17
2023-01-19T13:16:21.675Z,17
2023-01-19T13:17:21.678Z,17
2023-01-19T13:19:21.672Z,17
2023-01-19T13:20:21.676Z,16
2023-01-19T13:21:21.681Z,16
2023-01-19T13:23:21.668Z,18
2023-01-19T13:24:21.669Z,16
2023-01-19T13:25:21.674Z,16
2023-01-19T13:28:21.674Z,16
2023-01-19T13:29:21.665Z,15
2023-01-19T13:30:21.708Z,16
2023-01-19T13:31:21.694Z,16
2023-01-19T13:33:21.693Z,17
2023-01-19T13:34:21.666Z,16
2023-01-19T13:35:21.660Z,15
2023-01-19T13:36:21.680Z,16
2023-01-19T13:37:21.674Z,17
2023-01-19T13:38:21.664Z,15
2023-01-19T13:39:21.670Z,16
2023-01-19T13:40:21.680Z,15
2023-01-19T13:41:21.658Z,14
2023-01-19T13:42:21.661Z,13
2023-01-19T13:43:21.666Z,14
2023-01-19T13:44:21.673Z,13
2023-01-19T13:45:21.679Z,12
2023-01-19T13:47:21.662Z,14
2023-01-19T13:48:21.667Z,15
2023-01-19T13:49:21.664Z,14
2023-01-19T13:50:21.664Z,14
2023-01-19T13:51:21.671Z,13
2023-01-19T13:52:21.679Z,13
2023-01-19T13:53:21.673Z,14
2023-01-19T13:54:21.669Z,13
2023-01-19T13:55:21.714Z,14
2023-01-19T13:56:21.722Z,12
2023-01-19T13:57:21.667Z,13
2023-01-19T13:58:21.732Z,14
2023-01-19T13:59:21.686Z,14
2023-01-19T14:00:21.701Z,13
2023-01-19T14:01:22.157Z,13
2023-01-19T14:03:21.781Z,13
2023-01-19T14:04:21.692Z,15
2023-01-19T14:05:21.677Z,17
2023-01-19T14:06:21.745Z,16
2023-01-19T14:07:21.696Z,14
2023-01-19T14:08:21.678Z,13
2023-01-19T14:09:21.663Z,14
2023-01-19T14:10:21.663Z,15
2023-01-19T14:11:21.659Z,14
2023-01-19T14:12:21.694Z,13
2023-01-19T14:13:21.726Z,13
2023-01-19T14:14:21.703Z,12
2023-01-19T14:15:21.660Z,13
2023-01-19T14:16:21.680Z,13
2023-01-19T14:17:21.653Z,11
2023-01-19T14:18:21.653Z,11
2023-01-19T14:19:21.808Z,11
2023-01-19T14:20:21.653Z,12
2023-01-19T14:21:21.650Z,12
2023-01-19T14:22:21.655Z,12
2023-01-19T14:23:21.660Z,12
2023-01-19T14:24:21.683Z,12
2023-01-19T14:25:21.681Z,12
2023-01-19T14:26:21.661Z,12
2023-01-19T14:27:21.661Z,12
2023-01-19T14:28:21.973Z,11
2023-01-19T14:29:21.678Z,13
2023-01-19T14:30:21.723Z,11
2023-01-19T14:31:21.686Z,11
2023-01-19T14:32:21.660Z,12
2023-01-19T14:33:21.671Z,11
2023-01-19T14:34:21.662Z,13
2023-01-19T14:35:21.704Z,12
2023-01-19T14:36:21.775Z,12
2023-01-19T14:37:21.661Z,10
2023-01-19T14:38:21.655Z,11
2023-01-19T14:39:21.714Z,11
2023-01-19T14:40:21.737Z,10
2023-01-19T14:41:21.657Z,11
2023-01-19T14:43:21.671Z,10
2023-01-19T14:44:21.655Z,11
2023-01-19T14:45:21.705Z,10
2023-01-19T14:46:21.692Z,11
2023-01-19T14:47:21.673Z,11
2023-01-19T14:48:21.662Z,11
2023-01-19T14:49:21.724Z,12
2023-01-19T14:51:21.668Z,11
2023-01-19T14:53:21.676Z,12
2023-01-19T14:54:21.728Z,11
2023-01-19T14:56:21.649Z,11
2023-01-19T14:57:21.658Z,11
2023-01-19T14:59:21.720Z,11
2023-01-19T15:00:21.661Z,12
2023-01-19T15:01:21.717Z,12
2023-01-19T15:02:21.685Z,11
2023-01-19T15:03:24.972Z,12
2023-01-19T15:04:21.652Z,11
2023-01-19T15:05:21.658Z,11
2023-01-19T15:07:21.658Z,12
2023-01-19T15:08:21.655Z,13
2023-01-19T15:09:21.660Z,11
2023-01-19T15:10:21.689Z,12
2023-01-19T15:12:21.658Z,12
2023-01-19T15:13:21.660Z,12
2023-01-19T15:14:21.736Z,11
2023-01-19T15:15:21.663Z,12
2023-01-19T15:16:21.670Z,12
2023-01-19T15:17:21.653Z,11
2023-01-19T15:18:21.668Z,13
2023-01-19T15:19:21.647Z,11
2023-01-19T15:20:21.644Z,11
2023-01-19T15:21:21.674Z,13
2023-01-19T15:22:21.663Z,12
2023-01-19T15:23:21.649Z,11
2023-01-19T15:24:21.655Z,12
2023-01-19T15:25:21.645Z,11
2023-01-19T15:26:21.676Z,11
2023-01-19T15:27:21.684Z,12
2023-01-19T15:28:21.652Z,12
2023-01-19T15:31:21.751Z,13
2023-01-19T15:32:21.653Z,11
2023-01-19T15:33:21.662Z,12
2023-01-19T15:34:21.659Z,13
2023-01-19T15:35:21.642Z,12
2023-01-19T15:36:21.657Z,13
2023-01-19T15:37:21.676Z,12
2023-01-19T15:38:21.648Z,12
2023-01-19T15:39:21.651Z,11
2023-01-19T15:40:21.647Z,11
2023-01-19T15:41:23.326Z,12
2023-01-19T15:42:21.656Z,12
2023-01-19T15:44:21.646Z,12
2023-01-19T15:45:21.760Z,12
2023-01-19T15:46:21.667Z,12
2023-01-19T15:47:21.646Z,12
2023-01-19T15:48:21.651Z,12
2023-01-19T15:49:21.646Z,12
2023-01-19T15:50:21.649Z,12
2023-01-19T15:51:21.643Z,13
2023-01-19T15:52:21.645Z,13
2023-01-19T15:53:21.649Z,12
2023-01-19T15:54:21.653Z,12